sensor_id;sensor_type;location;lat;lon;timestamp;P1;durP1;ratioP1;P2;durP2;ratioP2
76765;SDS011;65707;52.362;6.588;2024-01-27T00:00:30;13.93;;;2.80;;
76765;SDS011;65707;52.362;6.588;2024-01-27T00:02:57;12.57;;;2.78;;
76765;SDS011;65707;52.362;6.588;2024-01-27T00:05:25;17.50;;;3.00;;
76765;SDS011;65707;52.362;6.588;2024-01-27T00:07:51;16.25;;;2.90;;
76765;SDS011;65707;52.362;6.588;2024-01-27T00:10:18;16.85;;;2.78;;
76765;SDS011;65707;52.362;6.588;2024-01-27T00:12:45;13.98;;;2.80;;
76765;SDS011;65707;52.362;6.588;2024-01-27T00:15:12;15.45;;;2.58;;
76765;SDS011;65707;52.362;6.588;2024-01-27T00:17:39;14.70;;;2.55;;
76765;SDS011;65707;52.362;6.588;2024-01-27T00:20:06;14.18;;;2.50;;
76765;SDS011;65707;52.362;6.588;2024-01-27T00:22:35;19.88;;;2.67;;
76765;SDS011;65707;52.362;6.588;2024-01-27T00:25:01;18.40;;;2.67;;
76765;SDS011;65707;52.362;6.588;2024-01-27T00:27:28;16.80;;;2.60;;
76765;SDS011;65707;52.362;6.588;2024-01-27T00:29:55;14.75;;;2.60;;
76765;SDS011;65707;52.362;6.588;2024-01-27T00:32:22;17.10;;;2.60;;
76765;SDS011;65707;52.362;6.588;2024-01-27T00:34:48;20.40;;;3.72;;
76765;SDS011;65707;52.362;6.588;2024-01-27T00:37:15;15.48;;;3.00;;
76765;SDS011;65707;52.362;6.588;2024-01-27T00:39:44;14.00;;;2.72;;
76765;SDS011;65707;52.362;6.588;2024-01-27T00:42:11;19.73;;;2.50;;
76765;SDS011;65707;52.362;6.588;2024-01-27T00:44:38;15.40;;;2.67;;
76765;SDS011;65707;52.362;6.588;2024-01-27T00:47:04;18.60;;;2.55;;
76765;SDS011;65707;52.362;6.588;2024-01-27T00:49:31;13.80;;;3.00;;
76765;SDS011;65707;52.362;6.588;2024-01-27T00:51:58;16.25;;;3.08;;
76765;SDS011;65707;52.362;6.588;2024-01-27T00:54:25;20.92;;;2.75;;
76765;SDS011;65707;52.362;6.588;2024-01-27T00:56:53;14.88;;;3.03;;
76765;SDS011;65707;52.362;6.588;2024-01-27T00:59:19;18.63;;;3.05;;
76765;SDS011;65707;52.362;6.588;2024-01-27T01:01:46;13.95;;;2.60;;
76765;SDS011;65707;52.362;6.588;2024-01-27T01:04:13;15.15;;;2.15;;
76765;SDS011;65707;52.362;6.588;2024-01-27T01:06:40;16.00;;;2.80;;
76765;SDS011;65707;52.362;6.588;2024-01-27T01:09:07;14.32;;;2.53;;
76765;SDS011;65707;52.362;6.588;2024-01-27T01:11:35;14.75;;;2.60;;
76765;SDS011;65707;52.362;6.588;2024-01-27T01:14:03;17.65;;;3.00;;
76765;SDS011;65707;52.362;6.588;2024-01-27T01:16:29;13.60;;;2.45;;
76765;SDS011;65707;52.362;6.588;2024-01-27T01:18:56;16.60;;;3.20;;
76765;SDS011;65707;52.362;6.588;2024-01-27T01:21:23;15.73;;;2.90;;
76765;SDS011;65707;52.362;6.588;2024-01-27T01:23:50;19.00;;;2.83;;
76765;SDS011;65707;52.362;6.588;2024-01-27T01:26:17;16.88;;;2.70;;
76765;SDS011;65707;52.362;6.588;2024-01-27T01:28:44;17.75;;;2.50;;
76765;SDS011;65707;52.362;6.588;2024-01-27T01:31:12;26.05;;;3.55;;
76765;SDS011;65707;52.362;6.588;2024-01-27T01:33:38;12.98;;;2.90;;
76765;SDS011;65707;52.362;6.588;2024-01-27T01:36:05;17.30;;;2.78;;
76765;SDS011;65707;52.362;6.588;2024-01-27T01:38:32;17.85;;;2.78;;
76765;SDS011;65707;52.362;6.588;2024-01-27T01:40:59;17.98;;;2.65;;
76765;SDS011;65707;52.362;6.588;2024-01-27T01:43:26;18.10;;;2.63;;
76765;SDS011;65707;52.362;6.588;2024-01-27T01:45:52;14.15;;;2.15;;
76765;SDS011;65707;52.362;6.588;2024-01-27T01:48:21;18.35;;;3.08;;
76765;SDS011;65707;52.362;6.588;2024-01-27T01:50:47;20.20;;;3.13;;
76765;SDS011;65707;52.362;6.588;2024-01-27T01:53:16;14.82;;;2.88;;
76765;SDS011;65707;52.362;6.588;2024-01-27T01:55:42;15.57;;;2.50;;
76765;SDS011;65707;52.362;6.588;2024-01-27T01:58:11;14.82;;;2.80;;
76765;SDS011;65707;52.362;6.588;2024-01-27T02:00:38;16.83;;;2.70;;
76765;SDS011;65707;52.362;6.588;2024-01-27T02:03:04;17.88;;;2.85;;
76765;SDS011;65707;52.362;6.588;2024-01-27T02:05:32;18.65;;;2.80;;
76765;SDS011;65707;52.362;6.588;2024-01-27T02:07:59;16.73;;;2.78;;
76765;SDS011;65707;52.362;6.588;2024-01-27T02:10:29;15.82;;;2.97;;
76765;SDS011;65707;52.362;6.588;2024-01-27T02:13:01;17.02;;;3.05;;
76765;SDS011;65707;52.362;6.588;2024-01-27T02:15:28;19.42;;;3.15;;
76765;SDS011;65707;52.362;6.588;2024-01-27T02:17:54;20.67;;;3.28;;
76765;SDS011;65707;52.362;6.588;2024-01-27T02:20:21;12.50;;;2.53;;
76765;SDS011;65707;52.362;6.588;2024-01-27T02:22:49;15.13;;;2.17;;
76765;SDS011;65707;52.362;6.588;2024-01-27T02:25:17;14.40;;;2.70;;
76765;SDS011;65707;52.362;6.588;2024-01-27T02:27:44;14.70;;;2.80;;
76765;SDS011;65707;52.362;6.588;2024-01-27T02:30:11;21.52;;;3.22;;
76765;SDS011;65707;52.362;6.588;2024-01-27T02:32:38;17.65;;;3.05;;
76765;SDS011;65707;52.362;6.588;2024-01-27T02:35:04;19.63;;;2.65;;
76765;SDS011;65707;52.362;6.588;2024-01-27T02:37:32;14.90;;;2.60;;
76765;SDS011;65707;52.362;6.588;2024-01-27T02:39:59;13.75;;;2.20;;
76765;SDS011;65707;52.362;6.588;2024-01-27T02:42:27;15.38;;;3.10;;
76765;SDS011;65707;52.362;6.588;2024-01-27T02:44:54;14.80;;;3.47;;
76765;SDS011;65707;52.362;6.588;2024-01-27T02:47:20;17.85;;;3.30;;
76765;SDS011;65707;52.362;6.588;2024-01-27T02:49:47;14.10;;;2.45;;
76765;SDS011;65707;52.362;6.588;2024-01-27T02:52:14;17.90;;;2.90;;
76765;SDS011;65707;52.362;6.588;2024-01-27T02:54:40;23.35;;;3.15;;
76765;SDS011;65707;52.362;6.588;2024-01-27T02:57:07;16.20;;;2.63;;
76765;SDS011;65707;52.362;6.588;2024-01-27T02:59:35;12.73;;;2.42;;
76765;SDS011;65707;52.362;6.588;2024-01-27T03:02:03;15.65;;;2.92;;
76765;SDS011;65707;52.362;6.588;2024-01-27T03:04:30;17.20;;;2.63;;
76765;SDS011;65707;52.362;6.588;2024-01-27T03:06:57;21.42;;;3.45;;
76765;SDS011;65707;52.362;6.588;2024-01-27T03:09:24;18.13;;;2.88;;
76765;SDS011;65707;52.362;6.588;2024-01-27T03:11:50;15.80;;;2.75;;
76765;SDS011;65707;52.362;6.588;2024-01-27T03:14:17;20.73;;;3.35;;
76765;SDS011;65707;52.362;6.588;2024-01-27T03:16:45;19.33;;;3.72;;
76765;SDS011;65707;52.362;6.588;2024-01-27T03:19:12;17.65;;;2.88;;
76765;SDS011;65707;52.362;6.588;2024-01-27T03:21:38;20.48;;;4.00;;
76765;SDS011;65707;52.362;6.588;2024-01-27T03:24:05;18.58;;;3.10;;
76765;SDS011;65707;52.362;6.588;2024-01-27T03:26:32;17.92;;;3.35;;
76765;SDS011;65707;52.362;6.588;2024-01-27T03:28:59;13.55;;;3.03;;
76765;SDS011;65707;52.362;6.588;2024-01-27T03:31:29;18.63;;;3.22;;
76765;SDS011;65707;52.362;6.588;2024-01-27T03:33:58;17.63;;;3.35;;
76765;SDS011;65707;52.362;6.588;2024-01-27T03:36:25;19.98;;;4.57;;
76765;SDS011;65707;52.362;6.588;2024-01-27T03:38:52;17.67;;;3.30;;
76765;SDS011;65707;52.362;6.588;2024-01-27T03:41:19;19.10;;;3.53;;
76765;SDS011;65707;52.362;6.588;2024-01-27T03:43:46;18.83;;;3.40;;
76765;SDS011;65707;52.362;6.588;2024-01-27T03:46:13;14.77;;;3.30;;
76765;SDS011;65707;52.362;6.588;2024-01-27T03:48:39;14.48;;;3.50;;
76765;SDS011;65707;52.362;6.588;2024-01-27T03:51:08;16.45;;;4.05;;
76765;SDS011;65707;52.362;6.588;2024-01-27T03:53:34;21.20;;;3.53;;
76765;SDS011;65707;52.362;6.588;2024-01-27T03:56:02;14.00;;;3.55;;
76765;SDS011;65707;52.362;6.588;2024-01-27T03:58:29;23.08;;;3.72;;
76765;SDS011;65707;52.362;6.588;2024-01-27T04:00:57;20.42;;;3.65;;
76765;SDS011;65707;52.362;6.588;2024-01-27T04:03:23;17.88;;;3.97;;
76765;SDS011;65707;52.362;6.588;2024-01-27T04:05:50;17.02;;;3.47;;
76765;SDS011;65707;52.362;6.588;2024-01-27T04:08:18;16.67;;;3.67;;
76765;SDS011;65707;52.362;6.588;2024-01-27T04:10:45;14.60;;;3.42;;
76765;SDS011;65707;52.362;6.588;2024-01-27T04:13:12;17.73;;;3.92;;
76765;SDS011;65707;52.362;6.588;2024-01-27T04:15:39;21.90;;;3.42;;
76765;SDS011;65707;52.362;6.588;2024-01-27T04:18:06;21.27;;;4.07;;
76765;SDS011;65707;52.362;6.588;2024-01-27T04:20:34;19.40;;;3.70;;
76765;SDS011;65707;52.362;6.588;2024-01-27T04:23:01;22.23;;;3.85;;
76765;SDS011;65707;52.362;6.588;2024-01-27T04:25:30;15.80;;;3.55;;
76765;SDS011;65707;52.362;6.588;2024-01-27T04:27:56;17.17;;;3.95;;
76765;SDS011;65707;52.362;6.588;2024-01-27T04:30:23;19.65;;;3.85;;
76765;SDS011;65707;52.362;6.588;2024-01-27T04:32:50;19.75;;;4.05;;
76765;SDS011;65707;52.362;6.588;2024-01-27T04:35:17;19.90;;;4.10;;
76765;SDS011;65707;52.362;6.588;2024-01-27T04:37:44;19.50;;;3.90;;
76765;SDS011;65707;52.362;6.588;2024-01-27T04:40:10;19.33;;;4.03;;
76765;SDS011;65707;52.362;6.588;2024-01-27T04:42:39;21.58;;;4.22;;
76765;SDS011;65707;52.362;6.588;2024-01-27T04:45:06;18.80;;;4.28;;
76765;SDS011;65707;52.362;6.588;2024-01-27T04:47:34;20.35;;;4.00;;
76765;SDS011;65707;52.362;6.588;2024-01-27T04:50:00;22.58;;;4.63;;
76765;SDS011;65707;52.362;6.588;2024-01-27T04:52:28;20.20;;;4.28;;
76765;SDS011;65707;52.362;6.588;2024-01-27T04:54:54;15.25;;;3.35;;
76765;SDS011;65707;52.362;6.588;2024-01-27T04:57:21;19.27;;;4.38;;
76765;SDS011;65707;52.362;6.588;2024-01-27T04:59:49;21.42;;;4.28;;
76765;SDS011;65707;52.362;6.588;2024-01-27T05:02:16;19.95;;;3.92;;
76765;SDS011;65707;52.362;6.588;2024-01-27T05:04:44;22.58;;;4.40;;
76765;SDS011;65707;52.362;6.588;2024-01-27T05:07:10;16.08;;;3.85;;
76765;SDS011;65707;52.362;6.588;2024-01-27T05:09:37;15.20;;;4.05;;
76765;SDS011;65707;52.362;6.588;2024-01-27T05:12:04;17.55;;;4.20;;
76765;SDS011;65707;52.362;6.588;2024-01-27T05:14:31;21.85;;;4.43;;
76765;SDS011;65707;52.362;6.588;2024-01-27T05:16:59;18.83;;;4.82;;
76765;SDS011;65707;52.362;6.588;2024-01-27T05:19:26;25.88;;;4.30;;
76765;SDS011;65707;52.362;6.588;2024-01-27T05:21:53;23.88;;;4.47;;
76765;SDS011;65707;52.362;6.588;2024-01-27T05:24:18;13.15;;;3.30;;
76765;SDS011;65707;52.362;6.588;2024-01-27T05:26:45;19.98;;;3.78;;
76765;SDS011;65707;52.362;6.588;2024-01-27T05:29:12;23.63;;;4.88;;
76765;SDS011;65707;52.362;6.588;2024-01-27T05:31:38;18.23;;;4.57;;
76765;SDS011;65707;52.362;6.588;2024-01-27T05:34:09;19.23;;;3.80;;
76765;SDS011;65707;52.362;6.588;2024-01-27T05:36:36;20.70;;;4.45;;
76765;SDS011;65707;52.362;6.588;2024-01-27T05:39:03;15.07;;;3.85;;
76765;SDS011;65707;52.362;6.588;2024-01-27T05:41:29;17.38;;;4.07;;
76765;SDS011;65707;52.362;6.588;2024-01-27T05:43:56;19.42;;;4.22;;
76765;SDS011;65707;52.362;6.588;2024-01-27T05:46:23;13.18;;;3.85;;
76765;SDS011;65707;52.362;6.588;2024-01-27T05:48:51;16.67;;;4.07;;
76765;SDS011;65707;52.362;6.588;2024-01-27T05:51:20;23.35;;;4.55;;
76765;SDS011;65707;52.362;6.588;2024-01-27T05:53:49;18.20;;;4.03;;
76765;SDS011;65707;52.362;6.588;2024-01-27T05:56:16;23.60;;;4.88;;
76765;SDS011;65707;52.362;6.588;2024-01-27T05:58:43;15.57;;;4.35;;
76765;SDS011;65707;52.362;6.588;2024-01-27T06:01:09;16.13;;;4.20;;
76765;SDS011;65707;52.362;6.588;2024-01-27T06:03:36;15.65;;;3.90;;
76765;SDS011;65707;52.362;6.588;2024-01-27T06:06:03;14.35;;;4.45;;
76765;SDS011;65707;52.362;6.588;2024-01-27T06:08:31;25.48;;;4.75;;
76765;SDS011;65707;52.362;6.588;2024-01-27T06:10:58;18.17;;;4.50;;
76765;SDS011;65707;52.362;6.588;2024-01-27T06:13:24;19.35;;;4.32;;
76765;SDS011;65707;52.362;6.588;2024-01-27T06:15:51;22.90;;;4.50;;
76765;SDS011;65707;52.362;6.588;2024-01-27T06:18:18;17.92;;;4.82;;
76765;SDS011;65707;52.362;6.588;2024-01-27T06:20:45;19.13;;;4.68;;
76765;SDS011;65707;52.362;6.588;2024-01-27T06:23:12;15.23;;;4.35;;
76765;SDS011;65707;52.362;6.588;2024-01-27T06:25:41;19.20;;;4.53;;
76765;SDS011;65707;52.362;6.588;2024-01-27T06:28:08;21.05;;;4.88;;
76765;SDS011;65707;52.362;6.588;2024-01-27T06:30:35;24.85;;;4.93;;
76765;SDS011;65707;52.362;6.588;2024-01-27T06:33:02;18.75;;;5.00;;
76765;SDS011;65707;52.362;6.588;2024-01-27T06:35:29;21.38;;;5.05;;
76765;SDS011;65707;52.362;6.588;2024-01-27T06:37:55;15.98;;;5.47;;
76765;SDS011;65707;52.362;6.588;2024-01-27T06:40:22;21.48;;;5.30;;
76765;SDS011;65707;52.362;6.588;2024-01-27T06:42:50;21.67;;;5.25;;
76765;SDS011;65707;52.362;6.588;2024-01-27T06:45:17;19.83;;;5.55;;
76765;SDS011;65707;52.362;6.588;2024-01-27T06:47:43;20.80;;;5.50;;
76765;SDS011;65707;52.362;6.588;2024-01-27T06:50:10;24.77;;;5.50;;
76765;SDS011;65707;52.362;6.588;2024-01-27T06:52:38;19.42;;;4.88;;
76765;SDS011;65707;52.362;6.588;2024-01-27T06:55:05;17.45;;;5.07;;
76765;SDS011;65707;52.362;6.588;2024-01-27T06:57:32;22.85;;;5.50;;
76765;SDS011;65707;52.362;6.588;2024-01-27T07:00:00;24.85;;;5.50;;
76765;SDS011;65707;52.362;6.588;2024-01-27T07:02:28;24.25;;;5.13;;
76765;SDS011;65707;52.362;6.588;2024-01-27T07:04:55;18.25;;;4.60;;
76765;SDS011;65707;52.362;6.588;2024-01-27T07:07:22;24.27;;;5.60;;
76765;SDS011;65707;52.362;6.588;2024-01-27T07:09:52;19.67;;;5.22;;
76765;SDS011;65707;52.362;6.588;2024-01-27T07:12:21;19.80;;;5.20;;
76765;SDS011;65707;52.362;6.588;2024-01-27T07:14:47;20.70;;;5.68;;
76765;SDS011;65707;52.362;6.588;2024-01-27T07:17:15;19.25;;;5.20;;
76765;SDS011;65707;52.362;6.588;2024-01-27T07:19:42;23.90;;;5.65;;
76765;SDS011;65707;52.362;6.588;2024-01-27T07:22:09;22.17;;;5.32;;
76765;SDS011;65707;52.362;6.588;2024-01-27T07:24:36;18.90;;;5.80;;
76765;SDS011;65707;52.362;6.588;2024-01-27T07:27:02;16.58;;;5.35;;
76765;SDS011;65707;52.362;6.588;2024-01-27T07:29:30;19.15;;;6.22;;
76765;SDS011;65707;52.362;6.588;2024-01-27T07:31:57;18.13;;;5.97;;
76765;SDS011;65707;52.362;6.588;2024-01-27T07:34:25;17.98;;;5.88;;
76765;SDS011;65707;52.362;6.588;2024-01-27T07:36:51;19.23;;;5.50;;
76765;SDS011;65707;52.362;6.588;2024-01-27T07:39:18;24.50;;;6.13;;
76765;SDS011;65707;52.362;6.588;2024-01-27T07:41:44;20.65;;;5.05;;
76765;SDS011;65707;52.362;6.588;2024-01-27T07:44:13;15.95;;;6.13;;
76765;SDS011;65707;52.362;6.588;2024-01-27T07:46:41;24.65;;;6.65;;
76765;SDS011;65707;52.362;6.588;2024-01-27T07:49:08;23.48;;;6.43;;
76765;SDS011;65707;52.362;6.588;2024-01-27T07:51:38;18.67;;;5.75;;
76765;SDS011;65707;52.362;6.588;2024-01-27T07:54:05;20.88;;;6.53;;
76765;SDS011;65707;52.362;6.588;2024-01-27T07:56:31;19.38;;;6.40;;
76765;SDS011;65707;52.362;6.588;2024-01-27T07:58:59;20.33;;;5.97;;
76765;SDS011;65707;52.362;6.588;2024-01-27T08:01:26;20.70;;;6.05;;
76765;SDS011;65707;52.362;6.588;2024-01-27T08:03:52;18.67;;;6.25;;
76765;SDS011;65707;52.362;6.588;2024-01-27T08:06:27;21.10;;;5.80;;
76765;SDS011;65707;52.362;6.588;2024-01-27T08:08:56;22.27;;;6.18;;
76765;SDS011;65707;52.362;6.588;2024-01-27T08:11:24;19.23;;;5.85;;
76765;SDS011;65707;52.362;6.588;2024-01-27T08:13:51;17.63;;;5.90;;
76765;SDS011;65707;52.362;6.588;2024-01-27T08:16:19;21.23;;;7.07;;
76765;SDS011;65707;52.362;6.588;2024-01-27T08:18:46;23.35;;;6.05;;
76765;SDS011;65707;52.362;6.588;2024-01-27T08:21:13;23.17;;;6.50;;
76765;SDS011;65707;52.362;6.588;2024-01-27T08:23:39;19.00;;;6.25;;
76765;SDS011;65707;52.362;6.588;2024-01-27T08:26:08;20.20;;;6.07;;
76765;SDS011;65707;52.362;6.588;2024-01-27T08:28:35;19.92;;;6.13;;
76765;SDS011;65707;52.362;6.588;2024-01-27T08:31:02;26.17;;;6.90;;
76765;SDS011;65707;52.362;6.588;2024-01-27T08:33:29;18.88;;;6.53;;
76765;SDS011;65707;52.362;6.588;2024-01-27T08:35:56;17.05;;;5.80;;
76765;SDS011;65707;52.362;6.588;2024-01-27T08:38:23;19.17;;;6.65;;
76765;SDS011;65707;52.362;6.588;2024-01-27T08:40:50;22.88;;;6.38;;
76765;SDS011;65707;52.362;6.588;2024-01-27T08:43:18;18.55;;;5.18;;
76765;SDS011;65707;52.362;6.588;2024-01-27T08:45:44;18.40;;;6.38;;
76765;SDS011;65707;52.362;6.588;2024-01-27T08:48:11;15.45;;;6.30;;
76765;SDS011;65707;52.362;6.588;2024-01-27T08:50:38;19.60;;;5.88;;
76765;SDS011;65707;52.362;6.588;2024-01-27T08:53:05;18.73;;;5.45;;
76765;SDS011;65707;52.362;6.588;2024-01-27T08:55:31;19.35;;;5.78;;
76765;SDS011;65707;52.362;6.588;2024-01-27T08:57:58;17.77;;;6.32;;
76765;SDS011;65707;52.362;6.588;2024-01-27T09:00:26;15.63;;;6.05;;
76765;SDS011;65707;52.362;6.588;2024-01-27T09:02:53;17.48;;;6.15;;
76765;SDS011;65707;52.362;6.588;2024-01-27T09:05:19;20.92;;;6.32;;
76765;SDS011;65707;52.362;6.588;2024-01-27T09:07:46;20.17;;;5.63;;
76765;SDS011;65707;52.362;6.588;2024-01-27T09:10:13;17.42;;;5.38;;
76765;SDS011;65707;52.362;6.588;2024-01-27T09:12:40;14.35;;;6.00;;
76765;SDS011;65707;52.362;6.588;2024-01-27T09:15:07;21.13;;;6.88;;
76765;SDS011;65707;52.362;6.588;2024-01-27T09:17:36;17.90;;;5.35;;
76765;SDS011;65707;52.362;6.588;2024-01-27T09:20:03;14.75;;;5.65;;
76765;SDS011;65707;52.362;6.588;2024-01-27T09:22:31;17.83;;;6.63;;
76765;SDS011;65707;52.362;6.588;2024-01-27T09:24:58;18.77;;;5.40;;
76765;SDS011;65707;52.362;6.588;2024-01-27T09:27:25;17.23;;;5.45;;
76765;SDS011;65707;52.362;6.588;2024-01-27T09:29:51;22.48;;;6.28;;
76765;SDS011;65707;52.362;6.588;2024-01-27T09:32:18;17.40;;;5.63;;
76765;SDS011;65707;52.362;6.588;2024-01-27T09:34:46;17.05;;;5.70;;
76765;SDS011;65707;52.362;6.588;2024-01-27T09:37:13;15.13;;;4.97;;
76765;SDS011;65707;52.362;6.588;2024-01-27T09:39:39;18.27;;;5.50;;
76765;SDS011;65707;52.362;6.588;2024-01-27T09:42:06;19.70;;;6.03;;
76765;SDS011;65707;52.362;6.588;2024-01-27T09:44:35;12.63;;;5.18;;
76765;SDS011;65707;52.362;6.588;2024-01-27T09:47:03;15.30;;;5.03;;
76765;SDS011;65707;52.362;6.588;2024-01-27T09:49:31;17.88;;;5.47;;
76765;SDS011;65707;52.362;6.588;2024-01-27T09:52:00;17.45;;;5.10;;
76765;SDS011;65707;52.362;6.588;2024-01-27T09:54:27;13.43;;;4.70;;
76765;SDS011;65707;52.362;6.588;2024-01-27T09:56:54;15.82;;;4.90;;
76765;SDS011;65707;52.362;6.588;2024-01-27T09:59:23;17.20;;;4.88;;
76765;SDS011;65707;52.362;6.588;2024-01-27T10:01:51;14.70;;;5.15;;
76765;SDS011;65707;52.362;6.588;2024-01-27T10:04:18;17.25;;;5.32;;
76765;SDS011;65707;52.362;6.588;2024-01-27T10:06:46;13.65;;;5.18;;
76765;SDS011;65707;52.362;6.588;2024-01-27T10:09:16;14.93;;;4.85;;
76765;SDS011;65707;52.362;6.588;2024-01-27T10:11:45;15.10;;;5.05;;
76765;SDS011;65707;52.362;6.588;2024-01-27T10:14:13;15.60;;;4.45;;
76765;SDS011;65707;52.362;6.588;2024-01-27T10:16:40;14.88;;;4.70;;
76765;SDS011;65707;52.362;6.588;2024-01-27T10:19:11;15.10;;;4.63;;
76765;SDS011;65707;52.362;6.588;2024-01-27T10:21:42;18.27;;;4.70;;
76765;SDS011;65707;52.362;6.588;2024-01-27T10:24:09;13.23;;;4.57;;
76765;SDS011;65707;52.362;6.588;2024-01-27T10:26:37;13.27;;;4.82;;
76765;SDS011;65707;52.362;6.588;2024-01-27T10:29:04;14.85;;;4.93;;
76765;SDS011;65707;52.362;6.588;2024-01-27T10:31:33;15.55;;;4.82;;
76765;SDS011;65707;52.362;6.588;2024-01-27T10:34:01;12.88;;;4.47;;
76765;SDS011;65707;52.362;6.588;2024-01-27T10:36:38;14.73;;;5.15;;
76765;SDS011;65707;52.362;6.588;2024-01-27T10:39:13;16.58;;;4.93;;
76765;SDS011;65707;52.362;6.588;2024-01-27T10:41:44;15.00;;;4.10;;
76765;SDS011;65707;52.362;6.588;2024-01-27T10:44:13;15.10;;;4.57;;
76765;SDS011;65707;52.362;6.588;2024-01-27T10:46:41;15.40;;;4.75;;
76765;SDS011;65707;52.362;6.588;2024-01-27T10:49:11;12.30;;;4.35;;
76765;SDS011;65707;52.362;6.588;2024-01-27T10:51:43;14.48;;;4.22;;
76765;SDS011;65707;52.362;6.588;2024-01-27T10:54:18;14.32;;;4.22;;
76765;SDS011;65707;52.362;6.588;2024-01-27T10:56:52;13.57;;;4.18;;
76765;SDS011;65707;52.362;6.588;2024-01-27T10:59:22;11.60;;;3.55;;
76765;SDS011;65707;52.362;6.588;2024-01-27T11:04:19;13.70;;;3.75;;
76765;SDS011;65707;52.362;6.588;2024-01-27T11:06:47;13.43;;;4.22;;
76765;SDS011;65707;52.362;6.588;2024-01-27T11:09:14;12.82;;;4.03;;
76765;SDS011;65707;52.362;6.588;2024-01-27T11:11:42;12.63;;;3.80;;
76765;SDS011;65707;52.362;6.588;2024-01-27T11:14:12;15.95;;;4.72;;
76765;SDS011;65707;52.362;6.588;2024-01-27T11:16:39;13.77;;;4.72;;
76765;SDS011;65707;52.362;6.588;2024-01-27T11:19:09;12.93;;;3.83;;
76765;SDS011;65707;52.362;6.588;2024-01-27T11:21:37;17.20;;;4.80;;
76765;SDS011;65707;52.362;6.588;2024-01-27T11:24:12;15.05;;;4.30;;
76765;SDS011;65707;52.362;6.588;2024-01-27T11:26:40;15.18;;;3.55;;
76765;SDS011;65707;52.362;6.588;2024-01-27T11:29:07;13.68;;;3.20;;
76765;SDS011;65707;52.362;6.588;2024-01-27T11:31:45;13.48;;;4.07;;
76765;SDS011;65707;52.362;6.588;2024-01-27T11:34:12;11.52;;;3.75;;
76765;SDS011;65707;52.362;6.588;2024-01-27T11:36:41;13.52;;;3.95;;
76765;SDS011;65707;52.362;6.588;2024-01-27T11:39:22;14.75;;;4.00;;
76765;SDS011;65707;52.362;6.588;2024-01-27T11:44:17;12.60;;;3.60;;
76765;SDS011;65707;52.362;6.588;2024-01-27T11:46:45;14.73;;;4.00;;
76765;SDS011;65707;52.362;6.588;2024-01-27T11:49:14;13.70;;;3.83;;
76765;SDS011;65707;52.362;6.588;2024-01-27T11:51:42;12.90;;;4.38;;
76765;SDS011;65707;52.362;6.588;2024-01-27T11:54:09;12.80;;;3.80;;
76765;SDS011;65707;52.362;6.588;2024-01-27T11:56:36;12.85;;;3.85;;
76765;SDS011;65707;52.362;6.588;2024-01-27T11:59:03;14.27;;;4.10;;
76765;SDS011;65707;52.362;6.588;2024-01-27T12:01:29;11.63;;;3.67;;
76765;SDS011;65707;52.362;6.588;2024-01-27T12:03:58;11.63;;;3.63;;
76765;SDS011;65707;52.362;6.588;2024-01-27T12:06:25;13.57;;;3.50;;
76765;SDS011;65707;52.362;6.588;2024-01-27T12:08:53;15.43;;;3.42;;
76765;SDS011;65707;52.362;6.588;2024-01-27T12:11:21;9.88;;;3.63;;
76765;SDS011;65707;52.362;6.588;2024-01-27T12:13:48;12.18;;;3.67;;
76765;SDS011;65707;52.362;6.588;2024-01-27T12:16:15;14.30;;;3.97;;
76765;SDS011;65707;52.362;6.588;2024-01-27T12:18:43;13.07;;;3.38;;
76765;SDS011;65707;52.362;6.588;2024-01-27T12:21:11;12.93;;;4.38;;
76765;SDS011;65707;52.362;6.588;2024-01-27T12:23:47;14.25;;;3.70;;
76765;SDS011;65707;52.362;6.588;2024-01-27T12:26:19;15.85;;;4.00;;
76765;SDS011;65707;52.362;6.588;2024-01-27T12:28:47;14.82;;;4.00;;
76765;SDS011;65707;52.362;6.588;2024-01-27T12:31:14;13.98;;;3.75;;
76765;SDS011;65707;52.362;6.588;2024-01-27T12:33:49;14.38;;;4.40;;
76765;SDS011;65707;52.362;6.588;2024-01-27T12:36:18;15.20;;;3.28;;
76765;SDS011;65707;52.362;6.588;2024-01-27T12:38:47;14.60;;;3.45;;
76765;SDS011;65707;52.362;6.588;2024-01-27T12:41:19;12.05;;;3.55;;
76765;SDS011;65707;52.362;6.588;2024-01-27T12:43:46;12.55;;;2.97;;
76765;SDS011;65707;52.362;6.588;2024-01-27T12:46:12;15.30;;;4.03;;
76765;SDS011;65707;52.362;6.588;2024-01-27T12:48:40;12.85;;;3.22;;
76765;SDS011;65707;52.362;6.588;2024-01-27T12:51:09;11.10;;;2.70;;
76765;SDS011;65707;52.362;6.588;2024-01-27T12:53:37;13.82;;;2.95;;
76765;SDS011;65707;52.362;6.588;2024-01-27T12:56:07;14.25;;;3.38;;
76765;SDS011;65707;52.362;6.588;2024-01-27T12:58:33;14.57;;;3.17;;
76765;SDS011;65707;52.362;6.588;2024-01-27T13:01:00;12.88;;;2.95;;
76765;SDS011;65707;52.362;6.588;2024-01-27T13:03:27;11.75;;;2.97;;
76765;SDS011;65707;52.362;6.588;2024-01-27T13:05:54;15.10;;;3.05;;
76765;SDS011;65707;52.362;6.588;2024-01-27T13:08:22;13.45;;;2.60;;
76765;SDS011;65707;52.362;6.588;2024-01-27T13:10:50;14.65;;;3.30;;
76765;SDS011;65707;52.362;6.588;2024-01-27T13:13:17;12.23;;;2.90;;
76765;SDS011;65707;52.362;6.588;2024-01-27T13:15:44;11.20;;;2.67;;
76765;SDS011;65707;52.362;6.588;2024-01-27T13:18:11;10.75;;;2.45;;
76765;SDS011;65707;52.362;6.588;2024-01-27T13:20:38;14.40;;;3.35;;
76765;SDS011;65707;52.362;6.588;2024-01-27T13:23:05;13.38;;;2.60;;
76765;SDS011;65707;52.362;6.588;2024-01-27T13:25:32;14.07;;;3.08;;
76765;SDS011;65707;52.362;6.588;2024-01-27T13:28:00;12.73;;;2.63;;
76765;SDS011;65707;52.362;6.588;2024-01-27T13:30:29;14.45;;;2.63;;
76765;SDS011;65707;52.362;6.588;2024-01-27T13:32:56;15.88;;;3.42;;
76765;SDS011;65707;52.362;6.588;2024-01-27T13:35:22;15.27;;;2.83;;
76765;SDS011;65707;52.362;6.588;2024-01-27T13:37:50;14.85;;;2.85;;
76765;SDS011;65707;52.362;6.588;2024-01-27T13:40:17;14.45;;;3.10;;
76765;SDS011;65707;52.362;6.588;2024-01-27T13:42:43;13.52;;;3.10;;
76765;SDS011;65707;52.362;6.588;2024-01-27T13:45:12;15.38;;;2.78;;
76765;SDS011;65707;52.362;6.588;2024-01-27T13:47:38;10.70;;;2.45;;
76765;SDS011;65707;52.362;6.588;2024-01-27T13:50:05;15.30;;;2.95;;
76765;SDS011;65707;52.362;6.588;2024-01-27T13:52:33;11.90;;;2.90;;
76765;SDS011;65707;52.362;6.588;2024-01-27T13:54:59;16.98;;;3.70;;
76765;SDS011;65707;52.362;6.588;2024-01-27T13:57:26;13.18;;;2.97;;
76765;SDS011;65707;52.362;6.588;2024-01-27T13:59:53;10.07;;;2.63;;
76765;SDS011;65707;52.362;6.588;2024-01-27T14:02:21;11.65;;;2.60;;
76765;SDS011;65707;52.362;6.588;2024-01-27T14:04:48;14.32;;;2.72;;
76765;SDS011;65707;52.362;6.588;2024-01-27T14:07:16;13.05;;;2.95;;
76765;SDS011;65707;52.362;6.588;2024-01-27T14:09:43;12.05;;;2.90;;
76765;SDS011;65707;52.362;6.588;2024-01-27T14:12:10;12.57;;;2.88;;
76765;SDS011;65707;52.362;6.588;2024-01-27T14:14:37;15.27;;;3.05;;
76765;SDS011;65707;52.362;6.588;2024-01-27T14:17:06;14.50;;;2.90;;
76765;SDS011;65707;52.362;6.588;2024-01-27T14:19:35;15.38;;;3.13;;
76765;SDS011;65707;52.362;6.588;2024-01-27T14:22:02;15.32;;;2.80;;
76765;SDS011;65707;52.362;6.588;2024-01-27T14:24:28;13.73;;;3.63;;
76765;SDS011;65707;52.362;6.588;2024-01-27T14:26:58;13.77;;;2.83;;
76765;SDS011;65707;52.362;6.588;2024-01-27T14:29:25;14.93;;;3.17;;
76765;SDS011;65707;52.362;6.588;2024-01-27T14:31:52;12.55;;;3.13;;
76765;SDS011;65707;52.362;6.588;2024-01-27T14:34:18;12.55;;;2.78;;
76765;SDS011;65707;52.362;6.588;2024-01-27T14:36:46;17.17;;;2.90;;
76765;SDS011;65707;52.362;6.588;2024-01-27T14:39:13;11.15;;;2.97;;